sensor_id;sensor_type;location;lat;lon;timestamp;pressure;altitude;pressure_sealevel;temperature;humidity
23166;BME280;11751;42.700;24.170;2024-01-30T00:00:37;95787.41;;;-1.52;80.19
23166;BME280;11751;42.700;24.170;2024-01-30T00:03:03;95791.28;;;-1.62;80.58
23166;BME280;11751;42.700;24.170;2024-01-30T00:05:28;95782.47;;;-1.69;81.00
23166;BME280;11751;42.700;24.170;2024-01-30T00:07:54;95790.50;;;-1.62;80.89
23166;BME280;11751;42.700;24.170;2024-01-30T00:10:19;95784.78;;;-1.68;80.56
23166;BME280;11751;42.700;24.170;2024-01-30T00:12:45;95780.50;;;-1.69;80.46
23166;BME280;11751;42.700;24.170;2024-01-30T00:15:11;95783.69;;;-1.82;81.60
23166;BME280;11751;42.700;24.170;2024-01-30T00:17:37;95774.97;;;-1.93;81.77
23166;BME280;11751;42.700;24.170;2024-01-30T00:20:03;95777.75;;;-1.81;81.58
23166;BME280;11751;42.700;24.170;2024-01-30T00:22:32;95778.06;;;-1.91;82.86
23166;BME280;11751;42.700;24.170;2024-01-30T00:24:58;95778.94;;;-1.94;82.53
23166;BME280;11751;42.700;24.170;2024-01-30T00:27:23;95772.56;;;-1.91;82.28
23166;BME280;11751;42.700;24.170;2024-01-30T00:29:49;95767.03;;;-2.04;82.68
23166;BME280;11751;42.700;24.170;2024-01-30T00:32:14;95774.41;;;-2.01;82.76
23166;BME280;11751;42.700;24.170;2024-01-30T00:34:41;95776.69;;;-1.99;82.31
23166;BME280;11751;42.700;24.170;2024-01-30T00:37:06;95777.25;;;-2.04;82.62
23166;BME280;11751;42.700;24.170;2024-01-30T00:39:32;95780.75;;;-2.04;82.58
23166;BME280;11751;42.700;24.170;2024-01-30T00:41:57;95780.97;;;-2.11;82.42
23166;BME280;11751;42.700;24.170;2024-01-30T00:44:23;95770.38;;;-2.25;83.46
23166;BME280;11751;42.700;24.170;2024-01-30T00:46:48;95772.72;;;-2.23;82.82
23166;BME280;11751;42.700;24.170;2024-01-30T00:49:14;95756.34;;;-2.55;85.26
23166;BME280;11751;42.700;24.170;2024-01-30T00:51:39;95784.63;;;-2.30;84.59
23166;BME280;11751;42.700;24.170;2024-01-30T00:54:05;95787.38;;;-2.58;86.06
23166;BME280;11751;42.700;24.170;2024-01-30T00:56:31;95773.81;;;-2.49;84.72
23166;BME280;11751;42.700;24.170;2024-01-30T00:58:57;95785.50;;;-2.33;84.11
23166;BME280;11751;42.700;24.170;2024-01-30T01:01:23;95788.25;;;-2.33;84.32
23166;BME280;11751;42.700;24.170;2024-01-30T01:03:48;95783.19;;;-2.34;83.79
23166;BME280;11751;42.700;24.170;2024-01-30T01:06:14;95784.75;;;-2.33;84.69
23166;BME280;11751;42.700;24.170;2024-01-30T01:08:39;95782.19;;;-2.40;87.06
23166;BME280;11751;42.700;24.170;2024-01-30T01:11:05;95778.78;;;-2.44;86.19
23166;BME280;11751;42.700;24.170;2024-01-30T01:13:30;95791.09;;;-2.36;85.43
23166;BME280;11751;42.700;24.170;2024-01-30T01:15:55;95782.56;;;-2.54;85.46
23166;BME280;11751;42.700;24.170;2024-01-30T01:18:21;95783.28;;;-2.66;86.51
23166;BME280;11751;42.700;24.170;2024-01-30T01:20:46;95781.84;;;-2.70;86.25
23166;BME280;11751;42.700;24.170;2024-01-30T01:23:12;95787.31;;;-2.70;87.18
23166;BME280;11751;42.700;24.170;2024-01-30T01:25:37;95778.84;;;-2.76;87.00
23166;BME280;11751;42.700;24.170;2024-01-30T01:28:03;95780.38;;;-2.75;87.01
23166;BME280;11751;42.700;24.170;2024-01-30T01:30:29;95782.28;;;-2.88;87.47
23166;BME280;11751;42.700;24.170;2024-01-30T01:32:55;95781.44;;;-2.85;87.09
23166;BME280;11751;42.700;24.170;2024-01-30T01:35:24;95792.19;;;-2.78;86.86
23166;BME280;11751;42.700;24.170;2024-01-30T01:37:51;95781.44;;;-2.85;87.43
23166;BME280;11751;42.700;24.170;2024-01-30T01:40:25;95787.84;;;-2.91;87.56
23166;BME280;11751;42.700;24.170;2024-01-30T01:42:51;95789.22;;;-2.83;87.01
23166;BME280;11751;42.700;24.170;2024-01-30T01:45:17;95791.03;;;-2.93;87.59
23166;BME280;11751;42.700;24.170;2024-01-30T01:47:43;95786.06;;;-2.82;86.99
23166;BME280;11751;42.700;24.170;2024-01-30T01:50:12;95788.81;;;-2.82;86.37
23166;BME280;11751;42.700;24.170;2024-01-30T01:52:39;95790.84;;;-2.86;86.31
23166;BME280;11751;42.700;24.170;2024-01-30T01:55:06;95780.06;;;-2.93;86.45
23166;BME280;11751;42.700;24.170;2024-01-30T01:57:33;95795.16;;;-3.01;87.81
23166;BME280;11751;42.700;24.170;2024-01-30T01:59:58;95794.13;;;-2.91;87.10
23166;BME280;11751;42.700;24.170;2024-01-30T02:02:24;95803.53;;;-2.92;86.30
23166;BME280;11751;42.700;24.170;2024-01-30T02:04:50;95791.03;;;-2.93;85.79
23166;BME280;11751;42.700;24.170;2024-01-30T02:07:17;95800.13;;;-3.12;87.05
23166;BME280;11751;42.700;24.170;2024-01-30T02:09:42;95790.88;;;-3.18;86.53
23166;BME280;11751;42.700;24.170;2024-01-30T02:12:08;95787.25;;;-3.46;89.06
23166;BME280;11751;42.700;24.170;2024-01-30T02:14:44;95791.53;;;-3.45;89.08
23166;BME280;11751;42.700;24.170;2024-01-30T02:17:09;95795.50;;;-3.31;88.47
23166;BME280;11751;42.700;24.170;2024-01-30T02:19:35;95792.75;;;-3.31;88.58
23166;BME280;11751;42.700;24.170;2024-01-30T02:22:00;95785.91;;;-3.38;88.95
23166;BME280;11751;42.700;24.170;2024-01-30T02:24:26;95788.13;;;-3.34;88.31
23166;BME280;11751;42.700;24.170;2024-01-30T02:26:51;95793.59;;;-3.34;88.51
23166;BME280;11751;42.700;24.170;2024-01-30T02:29:16;95787.78;;;-3.36;89.00
23166;BME280;11751;42.700;24.170;2024-01-30T02:31:42;95790.00;;;-3.46;89.65
23166;BME280;11751;42.700;24.170;2024-01-30T02:34:07;95793.59;;;-3.34;87.72
23166;BME280;11751;42.700;24.170;2024-01-30T02:36:33;95798.16;;;-3.27;87.16
23166;BME280;11751;42.700;24.170;2024-01-30T02:38:58;95792.16;;;-3.38;86.50
23166;BME280;11751;42.700;24.170;2024-01-30T02:41:24;95793.25;;;-3.36;87.02
23166;BME280;11751;42.700;24.170;2024-01-30T02:43:49;95791.53;;;-3.45;89.13
23166;BME280;11751;42.700;24.170;2024-01-30T02:46:15;95779.81;;;-3.46;88.43
23166;BME280;11751;42.700;24.170;2024-01-30T02:48:40;95782.97;;;-3.47;88.17
23166;BME280;11751;42.700;24.170;2024-01-30T02:51:05;95777.34;;;-3.40;87.59
23166;BME280;11751;42.700;24.170;2024-01-30T02:53:31;95786.66;;;-3.38;87.60
23166;BME280;11751;42.700;24.170;2024-01-30T02:55:56;95783.31;;;-3.45;87.81
23166;BME280;11751;42.700;24.170;2024-01-30T02:58:22;95776.81;;;-3.67;88.32
23166;BME280;11751;42.700;24.170;2024-01-30T03:00:47;95782.22;;;-3.64;88.74
23166;BME280;11751;42.700;24.170;2024-01-30T03:03:12;95785.69;;;-3.63;88.30
23166;BME280;11751;42.700;24.170;2024-01-30T03:05:38;95781.78;;;-3.62;88.23
23166;BME280;11751;42.700;24.170;2024-01-30T03:08:04;95779.38;;;-3.60;87.65
23166;BME280;11751;42.700;24.170;2024-01-30T03:10:30;95771.41;;;-3.71;88.09
23166;BME280;11751;42.700;24.170;2024-01-30T03:12:55;95781.31;;;-3.77;88.61
23166;BME280;11751;42.700;24.170;2024-01-30T03:15:20;95784.63;;;-3.85;88.80
23166;BME280;11751;42.700;24.170;2024-01-30T03:17:46;95783.41;;;-4.00;88.75
23166;BME280;11751;42.700;24.170;2024-01-30T03:20:11;95782.69;;;-4.04;88.34
23166;BME280;11751;42.700;24.170;2024-01-30T03:22:37;95778.41;;;-4.05;88.84
23166;BME280;11751;42.700;24.170;2024-01-30T03:25:02;95782.56;;;-3.97;88.19
23166;BME280;11751;42.700;24.170;2024-01-30T03:27:28;95771.91;;;-4.11;87.94
23166;BME280;11751;42.700;24.170;2024-01-30T03:29:54;95775.47;;;-4.14;88.17
23166;BME280;11751;42.700;24.170;2024-01-30T03:32:19;95773.88;;;-4.12;89.33
23166;BME280;11751;42.700;24.170;2024-01-30T03:34:44;95776.94;;;-4.10;89.31
23166;BME280;11751;42.700;24.170;2024-01-30T03:37:10;95782.63;;;-4.01;89.01
23166;BME280;11751;42.700;24.170;2024-01-30T03:39:35;95777.09;;;-3.97;89.47
23166;BME280;11751;42.700;24.170;2024-01-30T03:42:02;95775.53;;;-3.98;90.21
23166;BME280;11751;42.700;24.170;2024-01-30T03:44:27;95777.38;;;-4.11;90.68
23166;BME280;11751;42.700;24.170;2024-01-30T03:46:52;95765.09;;;-4.03;89.60
23166;BME280;11751;42.700;24.170;2024-01-30T03:49:18;95768.75;;;-4.10;91.23
23166;BME280;11751;42.700;24.170;2024-01-30T03:51:43;95769.69;;;-4.16;90.96
23166;BME280;11751;42.700;24.170;2024-01-30T03:54:09;95775.63;;;-4.21;91.80
23166;BME280;11751;42.700;24.170;2024-01-30T03:56:35;95783.34;;;-4.16;91.03
23166;BME280;11751;42.700;24.170;2024-01-30T03:59:00;95770.31;;;-4.28;91.06
23166;BME280;11751;42.700;24.170;2024-01-30T04:01:28;95776.63;;;-4.12;90.40
23166;BME280;11751;42.700;24.170;2024-01-30T04:03:53;95776.53;;;-4.08;90.20
23166;BME280;11751;42.700;24.170;2024-01-30T04:06:19;95781.16;;;-4.05;89.50
23166;BME280;11751;42.700;24.170;2024-01-30T04:08:45;95774.84;;;-4.02;89.21
23166;BME280;11751;42.700;24.170;2024-01-30T04:11:10;95785.94;;;-4.09;90.26
23166;BME280;11751;42.700;24.170;2024-01-30T04:13:35;95778.94;;;-4.10;89.62
23166;BME280;11751;42.700;24.170;2024-01-30T04:16:01;95776.03;;;-4.03;89.44
23166;BME280;11751;42.700;24.170;2024-01-30T04:18:28;95789.97;;;-3.98;89.94
23166;BME280;11751;42.700;24.170;2024-01-30T04:20:53;95784.25;;;-4.03;90.63
23166;BME280;11751;42.700;24.170;2024-01-30T04:23:19;95796.44;;;-4.08;90.90
23166;BME280;11751;42.700;24.170;2024-01-30T04:25:44;95787.47;;;-4.08;90.27
23166;BME280;11751;42.700;24.170;2024-01-30T04:28:10;95797.28;;;-3.91;89.74
23166;BME280;11751;42.700;24.170;2024-01-30T04:30:37;95793.56;;;-4.01;89.68
23166;BME280;11751;42.700;24.170;2024-01-30T04:33:03;95804.38;;;-3.94;89.69
23166;BME280;11751;42.700;24.170;2024-01-30T04:35:28;95798.09;;;-3.94;90.34
23166;BME280;11751;42.700;24.170;2024-01-30T04:37:54;95807.50;;;-3.95;90.31
23166;BME280;11751;42.700;24.170;2024-01-30T04:40:20;95799.69;;;-4.13;91.56
23166;BME280;11751;42.700;24.170;2024-01-30T04:42:46;95796.66;;;-4.37;94.63
23166;BME280;11751;42.700;24.170;2024-01-30T04:45:12;95800.59;;;-4.19;93.35
23166;BME280;11751;42.700;24.170;2024-01-30T04:47:37;95798.56;;;-4.15;92.32
23166;BME280;11751;42.700;24.170;2024-01-30T04:50:06;95791.06;;;-4.30;92.84
23166;BME280;11751;42.700;24.170;2024-01-30T04:52:31;95794.28;;;-4.35;93.03
23166;BME280;11751;42.700;24.170;2024-01-30T04:54:57;95792.66;;;-4.33;93.56
23166;BME280;11751;42.700;24.170;2024-01-30T04:57:22;95790.94;;;-4.23;92.73
23166;BME280;11751;42.700;24.170;2024-01-30T04:59:48;95791.13;;;-4.34;92.99
23166;BME280;11751;42.700;24.170;2024-01-30T05:02:13;95802.78;;;-4.30;92.82
23166;BME280;11751;42.700;24.170;2024-01-30T05:04:40;95794.41;;;-4.23;92.81
23166;BME280;11751;42.700;24.170;2024-01-30T05:07:06;95805.25;;;-4.16;92.76
23166;BME280;11751;42.700;24.170;2024-01-30T05:09:31;95798.44;;;-4.08;92.18
23166;BME280;11751;42.700;24.170;2024-01-30T05:11:57;95789.59;;;-4.16;91.93
23166;BME280;11751;42.700;24.170;2024-01-30T05:14:23;95794.63;;;-4.14;92.19
23166;BME280;11751;42.700;24.170;2024-01-30T05:16:48;95797.88;;;-4.19;92.59
23166;BME280;11751;42.700;24.170;2024-01-30T05:19:14;95797.16;;;-4.23;93.16
23166;BME280;11751;42.700;24.170;2024-01-30T05:21:39;95800.75;;;-4.26;92.86
23166;BME280;11751;42.700;24.170;2024-01-30T05:24:05;95799.41;;;-4.18;92.88
23166;BME280;11751;42.700;24.170;2024-01-30T05:26:31;95797.88;;;-4.19;92.99
23166;BME280;11751;42.700;24.170;2024-01-30T05:28:57;95805.56;;;-4.14;92.54
23166;BME280;11751;42.700;24.170;2024-01-30T05:31:22;95798.56;;;-4.15;92.64
23166;BME280;11751;42.700;24.170;2024-01-30T05:33:47;95800.94;;;-3.98;92.18
23166;BME280;11751;42.700;24.170;2024-01-30T05:36:13;95804.78;;;-3.95;92.47
23166;BME280;11751;42.700;24.170;2024-01-30T05:38:39;95800.84;;;-3.94;92.27
23166;BME280;11751;42.700;24.170;2024-01-30T05:41:04;95803.44;;;-3.87;92.81
23166;BME280;11751;42.700;24.170;2024-01-30T05:43:30;95804.22;;;-3.87;92.40
23166;BME280;11751;42.700;24.170;2024-01-30T05:45:55;95810.44;;;-3.86;92.85
23166;BME280;11751;42.700;24.170;2024-01-30T05:48:21;95808.22;;;-3.91;94.35
23166;BME280;11751;42.700;24.170;2024-01-30T05:50:46;95812.81;;;-3.69;94.20
23166;BME280;11751;42.700;24.170;2024-01-30T05:53:11;95801.91;;;-3.53;93.08
23166;BME280;11751;42.700;24.170;2024-01-30T05:55:37;95819.59;;;-3.57;93.97
23166;BME280;11751;42.700;24.170;2024-01-30T05:58:02;95816.25;;;-3.65;93.57
23166;BME280;11751;42.700;24.170;2024-01-30T06:00:29;95804.38;;;-3.58;93.10
23166;BME280;11751;42.700;24.170;2024-01-30T06:02:54;95797.53;;;-3.50;92.60
23166;BME280;11751;42.700;24.170;2024-01-30T06:05:20;95816.88;;;-3.57;91.95
23166;BME280;11751;42.700;24.170;2024-01-30T06:07:45;95818.53;;;-3.63;93.09
23166;BME280;11751;42.700;24.170;2024-01-30T06:10:11;95808.88;;;-3.52;92.43
23166;BME280;11751;42.700;24.170;2024-01-30T06:12:36;95811.66;;;-3.36;92.05
23166;BME280;11751;42.700;24.170;2024-01-30T06:15:02;95823.22;;;-3.29;92.30
23166;BME280;11751;42.700;24.170;2024-01-30T06:17:28;95830.59;;;-3.26;92.91
23166;BME280;11751;42.700;24.170;2024-01-30T06:19:53;95817.75;;;-3.29;92.94
23166;BME280;11751;42.700;24.170;2024-01-30T06:22:19;95819.03;;;-3.17;93.28
23166;BME280;11751;42.700;24.170;2024-01-30T06:24:45;95818.78;;;-3.07;93.06
23166;BME280;11751;42.700;24.170;2024-01-30T06:27:13;95816.03;;;-3.07;92.89
23166;BME280;11751;42.700;24.170;2024-01-30T06:29:38;95822.63;;;-2.88;92.48
23166;BME280;11751;42.700;24.170;2024-01-30T06:32:04;95834.38;;;-3.04;92.05
23166;BME280;11751;42.700;24.170;2024-01-30T06:34:29;95830.75;;;-2.85;92.16
23166;BME280;11751;42.700;24.170;2024-01-30T06:36:55;95826.88;;;-2.71;91.63
23166;BME280;11751;42.700;24.170;2024-01-30T06:39:20;95824.53;;;-2.85;91.73
23166;BME280;11751;42.700;24.170;2024-01-30T06:41:46;95823.81;;;-2.73;92.32
23166;BME280;11751;42.700;24.170;2024-01-30T06:44:12;95822.34;;;-2.78;91.19
23166;BME280;11751;42.700;24.170;2024-01-30T06:46:38;95825.34;;;-2.56;91.38
23166;BME280;11751;42.700;24.170;2024-01-30T06:49:04;95833.22;;;-2.58;91.85
23166;BME280;11751;42.700;24.170;2024-01-30T06:51:29;95843.44;;;-2.31;91.12
23166;BME280;11751;42.700;24.170;2024-01-30T06:53:54;95842.09;;;-2.10;90.30
23166;BME280;11751;42.700;24.170;2024-01-30T06:56:20;95838.63;;;-1.98;89.47
23166;BME280;11751;42.700;24.170;2024-01-30T06:58:47;95852.09;;;-1.75;88.76
23166;BME280;11751;42.700;24.170;2024-01-30T07:01:14;95841.38;;;-1.58;88.28
23166;BME280;11751;42.700;24.170;2024-01-30T07:03:39;95845.88;;;-1.51;87.30
23166;BME280;11751;42.700;24.170;2024-01-30T07:06:04;95846.91;;;-1.33;86.87
23166;BME280;11751;42.700;24.170;2024-01-30T07:08:30;95840.63;;;-1.21;86.75
23166;BME280;11751;42.700;24.170;2024-01-30T07:10:55;95831.28;;;-1.11;86.35
23166;BME280;11751;42.700;24.170;2024-01-30T07:13:21;95830.31;;;-1.17;86.74
23166;BME280;11751;42.700;24.170;2024-01-30T07:15:48;95833.63;;;-1.09;86.64
23166;BME280;11751;42.700;24.170;2024-01-30T07:18:13;95834.56;;;-0.91;85.97
23166;BME280;11751;42.700;24.170;2024-01-30T07:20:39;95826.22;;;-0.75;85.48
23166;BME280;11751;42.700;24.170;2024-01-30T07:23:12;95833.34;;;-0.65;83.72
23166;BME280;11751;42.700;24.170;2024-01-30T07:25:40;95821.44;;;-0.62;84.13
23166;BME280;11751;42.700;24.170;2024-01-30T07:28:07;95827.69;;;-0.49;83.65
23166;BME280;11751;42.700;24.170;2024-01-30T07:30:34;95838.84;;;-0.31;83.71
23166;BME280;11751;42.700;24.170;2024-01-30T07:33:00;95823.75;;;-0.27;83.69
23166;BME280;11751;42.700;24.170;2024-01-30T07:35:25;95831.72;;;-0.07;83.12
23166;BME280;11751;42.700;24.170;2024-01-30T07:37:50;95817.50;;;-0.06;83.65
23166;BME280;11751;42.700;24.170;2024-01-30T07:40:17;95830.31;;;0.09;84.05
23166;BME280;11751;42.700;24.170;2024-01-30T07:42:42;95827.19;;;0.20;83.18
23166;BME280;11751;42.700;24.170;2024-01-30T07:45:08;95820.59;;;0.17;80.41
23166;BME280;11751;42.700;24.170;2024-01-30T07:47:33;95827.13;;;0.32;78.48
23166;BME280;11751;42.700;24.170;2024-01-30T07:49:59;95821.59;;;0.54;77.28
23166;BME280;11751;42.700;24.170;2024-01-30T07:52:24;95820.13;;;0.40;75.12
23166;BME280;11751;42.700;24.170;2024-01-30T07:54:51;95817.09;;;0.47;74.75
23166;BME280;11751;42.700;24.170;2024-01-30T07:57:17;95810.38;;;0.48;73.40
23166;BME280;11751;42.700;24.170;2024-01-30T07:59:43;95819.56;;;0.76;75.00
23166;BME280;11751;42.700;24.170;2024-01-30T08:02:12;95813.53;;;0.98;73.94
23166;BME280;11751;42.700;24.170;2024-01-30T08:04:38;95827.09;;;1.14;73.44
23166;BME280;11751;42.700;24.170;2024-01-30T08:07:04;95828.97;;;1.26;73.88
23166;BME280;11751;42.700;24.170;2024-01-30T08:09:29;95831.59;;;1.39;70.76
23166;BME280;11751;42.700;24.170;2024-01-30T08:11:55;95826.56;;;1.46;70.50
23166;BME280;11751;42.700;24.170;2024-01-30T08:14:20;95825.19;;;1.51;71.60
23166;BME280;11751;42.700;24.170;2024-01-30T08:16:46;95839.91;;;1.57;70.01
23166;BME280;11751;42.700;24.170;2024-01-30T08:19:11;95831.91;;;1.32;69.46
23166;BME280;11751;42.700;24.170;2024-01-30T08:21:36;95831.91;;;1.32;69.64
23166;BME280;11751;42.700;24.170;2024-01-30T08:24:06;95828.81;;;1.30;70.11
23166;BME280;11751;42.700;24.170;2024-01-30T08:26:32;95838.69;;;1.58;70.06
23166;BME280;11751;42.700;24.170;2024-01-30T08:28:58;95835.47;;;1.50;70.66
23166;BME280;11751;42.700;24.170;2024-01-30T08:31:23;95835.63;;;1.56;71.87
23166;BME280;11751;42.700;24.170;2024-01-30T08:33:49;95827.97;;;1.60;71.31
23166;BME280;11751;42.700;24.170;2024-01-30T08:36:15;95821.84;;;1.65;71.17
23166;BME280;11751;42.700;24.170;2024-01-30T08:38:41;95814.78;;;1.64;70.24
23166;BME280;11751;42.700;24.170;2024-01-30T08:41:07;95820.53;;;1.21;70.74
23166;BME280;11751;42.700;24.170;2024-01-30T08:43:33;95817.44;;;1.19;71.67
23166;BME280;11751;42.700;24.170;2024-01-30T08:46:01;95818.38;;;1.34;71.46
23166;BME280;11751;42.700;24.170;2024-01-30T08:48:27;95823.03;;;1.55;71.18
23166;BME280;11751;42.700;24.170;2024-01-30T08:50:53;95825.38;;;1.74;70.02
23166;BME280;11751;42.700;24.170;2024-01-30T08:53:18;95816.94;;;1.68;69.63
23166;BME280;11751;42.700;24.170;2024-01-30T08:55:44;95814.50;;;1.88;69.17
23166;BME280;11751;42.700;24.170;2024-01-30T08:58:10;95812.34;;;2.01;68.94
23166;BME280;11751;42.700;24.170;2024-01-30T09:00:35;95818.19;;;1.94;67.43
23166;BME280;11751;42.700;24.170;2024-01-30T09:03:01;95809.72;;;2.07;67.70
23166;BME280;11751;42.700;24.170;2024-01-30T09:05:26;95812.06;;;2.08;67.36
23166;BME280;11751;42.700;24.170;2024-01-30T09:07:52;95795.16;;;2.15;66.60
23166;BME280;11751;42.700;24.170;2024-01-30T09:10:17;95805.88;;;2.22;66.58
23166;BME280;11751;42.700;24.170;2024-01-30T09:12:42;95817.09;;;2.01;66.84
23166;BME280;11751;42.700;24.170;2024-01-30T09:15:08;95799.75;;;1.91;67.67
23166;BME280;11751;42.700;24.170;2024-01-30T09:17:34;95792.09;;;1.86;66.80
23166;BME280;11751;42.700;24.170;2024-01-30T09:19:59;95793.31;;;1.94;67.53
23166;BME280;11751;42.700;24.170;2024-01-30T09:22:26;95806.19;;;2.24;67.38
23166;BME280;11751;42.700;24.170;2024-01-30T09:24:51;95797.56;;;2.31;65.64
23166;BME280;11751;42.700;24.170;2024-01-30T09:27:16;95800.94;;;2.44;65.76
23166;BME280;11751;42.700;24.170;2024-01-30T09:29:42;95801.97;;;2.64;65.58
23166;BME280;11751;42.700;24.170;2024-01-30T09:32:07;95798.16;;;2.53;63.47
23166;BME280;11751;42.700;24.170;2024-01-30T09:34:34;95794.28;;;2.68;63.67
23166;BME280;11751;42.700;24.170;2024-01-30T09:36:59;95781.25;;;2.51;65.14
23166;BME280;11751;42.700;24.170;2024-01-30T09:39:25;95782.78;;;2.61;64.23
23166;BME280;11751;42.700;24.170;2024-01-30T09:42:35;95787.72;;;2.57;63.93
23166;BME280;11751;42.700;24.170;2024-01-30T09:45:02;95783.66;;;2.76;64.06
23166;BME280;11751;42.700;24.170;2024-01-30T09:47:32;95777.25;;;2.61;64.06
23166;BME280;11751;42.700;24.170;2024-01-30T09:49:58;95780.38;;;2.86;64.39
23166;BME280;11751;42.700;24.170;2024-01-30T09:52:24;95772.00;;;3.04;63.43
23166;BME280;11751;42.700;24.170;2024-01-30T09:54:51;95767.50;;;3.16;62.28
23166;BME280;11751;42.700;24.170;2024-01-30T09:57:17;95762.31;;;3.09;62.38
23166;BME280;11751;42.700;24.170;2024-01-30T09:59:43;95756.69;;;3.27;61.38
23166;BME280;11751;42.700;24.170;2024-01-30T10:02:09;95767.91;;;3.55;62.47
23166;BME280;11751;42.700;24.170;2024-01-30T10:04:35;95767.66;;;3.68;61.73
23166;BME280;11751;42.700;24.170;2024-01-30T10:07:04;95758.97;;;3.75;60.43
23166;BME280;11751;42.700;24.170;2024-01-30T10:09:32;95759.75;;;3.75;59.69
23166;BME280;11751;42.700;24.170;2024-01-30T10:11:58;95768.41;;;3.68;60.52
23166;BME280;11751;42.700;24.170;2024-01-30T10:14:24;95757.34;;;3.45;59.40
23166;BME280;11751;42.700;24.170;2024-01-30T10:16:50;95763.41;;;3.81;59.73
23166;BME280;11751;42.700;24.170;2024-01-30T10:19:15;95757.44;;;3.50;56.94
23166;BME280;11751;42.700;24.170;2024-01-30T10:21:41;95763.16;;;3.70;57.43
23166;BME280;11751;42.700;24.170;2024-01-30T10:24:07;95763.97;;;3.38;58.45
23166;BME280;11751;42.700;24.170;2024-01-30T10:26:32;95756.59;;;3.44;59.52
23166;BME280;11751;42.700;24.170;2024-01-30T10:28:59;95763.09;;;2.68;60.18
23166;BME280;11751;42.700;24.170;2024-01-30T10:31:25;95748.94;;;2.75;61.80
23166;BME280;11751;42.700;24.170;2024-01-30T10:33:50;95752.63;;;3.04;60.98
23166;BME280;11751;42.700;24.170;2024-01-30T10:36:17;95759.38;;;2.71;62.59
23166;BME280;11751;42.700;24.170;2024-01-30T10:38:43;95755.59;;;2.59;63.69
23166;BME280;11751;42.700;24.170;2024-01-30T10:41:12;95753.28;;;2.67;63.20
23166;BME280;11751;42.700;24.170;2024-01-30T10:43:49;95751.03;;;2.89;61.84
23166;BME280;11751;42.700;24.170;2024-01-30T10:46:19;95755.31;;;2.90;61.47
23166;BME280;11751;42.700;24.170;2024-01-30T10:48:57;95755.59;;;3.01;62.11
23166;BME280;11751;42.700;24.170;2024-01-30T10:51:24;95746.34;;;3.04;61.02
23166;BME280;11751;42.700;24.170;2024-01-30T10:53:51;95753.19;;;2.85;60.81
23166;BME280;11751;42.700;24.170;2024-01-30T10:56:20;95746.56;;;2.91;61.07
23166;BME280;11751;42.700;24.170;2024-01-30T10:58:47;95733.34;;;3.19;61.43
23166;BME280;11751;42.700;24.170;2024-01-30T11:01:13;95736.41;;;3.44;60.61
23166;BME280;11751;42.700;24.170;2024-01-30T11:03:39;95739.59;;;3.51;59.31
23166;BME280;11751;42.700;24.170;2024-01-30T11:06:10;95719.59;;;3.56;59.09
23166;BME280;11751;42.700;24.170;2024-01-30T11:08:39;95738.13;;;3.65;59.49
23166;BME280;11751;42.700;24.170;2024-01-30T11:11:09;95724.22;;;3.88;58.91
23166;BME280;11751;42.700;24.170;2024-01-30T11:13:35;95718.13;;;3.84;57.87
23166;BME280;11751;42.700;24.170;2024-01-30T11:16:04;95723.59;;;3.93;56.86
23166;BME280;11751;42.700;24.170;2024-01-30T11:18:35;95716.28;;;3.81;57.94
23166;BME280;11751;42.700;24.170;2024-01-30T11:21:01;95705.13;;;3.90;58.49
23166;BME280;11751;42.700;24.170;2024-01-30T11:23:30;95708.41;;;4.03;56.69
23166;BME280;11751;42.700;24.170;2024-01-30T11:25:56;95720.72;;;4.02;56.61
23166;BME280;11751;42.700;24.170;2024-01-30T11:28:23;95710.97;;;3.92;56.26
23166;BME280;11751;42.700;24.170;2024-01-30T11:30:49;95708.50;;;3.94;55.97
23166;BME280;11751;42.700;24.170;2024-01-30T11:33:30;95707.94;;;4.19;56.13
23166;BME280;11751;42.700;24.170;2024-01-30T11:35:57;95703.91;;;4.20;56.42
23166;BME280;11751;42.700;24.170;2024-01-30T11:38:25;95712.00;;;3.95;55.70
23166;BME280;11751;42.700;24.170;2024-01-30T11:40:51;95699.22;;;3.97;55.74
23166;BME280;11751;42.700;24.170;2024-01-30T11:43:17;95702.81;;;3.74;55.00
23166;BME280;11751;42.700;24.170;2024-01-30T11:45:43;95699.19;;;3.83;56.04
23166;BME280;11751;42.700;24.170;2024-01-30T11:48:11;95699.03;;;4.01;56.18
23166;BME280;11751;42.700;24.170;2024-01-30T11:50:37;95707.47;;;4.21;55.89
23166;BME280;11751;42.700;24.170;2024-01-30T11:53:04;95694.06;;;4.19;54.52
23166;BME280;11751;42.700;24.170;2024-01-30T11:55:30;95691.19;;;4.28;54.69
23166;BME280;11751;42.700;24.170;2024-01-30T11:57:56;95686.53;;;4.34;55.24
23166;BME280;11751;42.700;24.170;2024-01-30T12:00:22;95685.47;;;4.46;55.44
23166;BME280;11751;42.700;24.170;2024-01-30T12:02:52;95688.16;;;4.40;55.06
23166;BME280;11751;42.700;24.170;2024-01-30T12:05:21;95682.97;;;4.33;54.60
23166;BME280;11751;42.700;24.170;2024-01-30T12:07:47;95670.56;;;4.29;56.41
23166;BME280;11751;42.700;24.170;2024-01-30T12:10:13;95681.25;;;4.36;56.23
23166;BME280;11751;42.700;24.170;2024-01-30T12:12:45;95673.97;;;3.81;57.58
23166;BME280;11751;42.700;24.170;2024-01-30T12:15:11;95674.97;;;4.21;56.65
23166;BME280;11751;42.700;24.170;2024-01-30T12:17:37;95683.38;;;4.26;56.35
23166;BME280;11751;42.700;24.170;2024-01-30T12:20:29;95681.25;;;3.93;57.05
23166;BME280;11751;42.700;24.170;2024-01-30T12:22:55;95667.88;;;4.06;56.48
23166;BME280;11751;42.700;24.170;2024-01-30T12:25:20;95665.78;;;4.01;57.29
23166;BME280;11751;42.700;24.170;2024-01-30T12:27:48;95673.03;;;4.13;58.30
23166;BME280;11751;42.700;24.170;2024-01-30T12:30:17;95669.28;;;3.87;57.22
23166;BME280;11751;42.700;24.170;2024-01-30T12:32:46;95665.81;;;3.77;58.80
23166;BME280;11751;42.700;24.170;2024-01-30T12:35:15;95662.31;;;3.77;59.02
23166;BME280;11751;42.700;24.170;2024-01-30T12:37:44;95648.56;;;3.82;58.54
23166;BME280;11751;42.700;24.170;2024-01-30T12:40:11;95658.13;;;3.96;58.06
23166;BME280;11751;42.700;24.170;2024-01-30T12:42:38;95658.69;;;3.85;59.12
23166;BME280;11751;42.700;24.170;2024-01-30T12:45:04;95657.72;;;3.88;59.07
23166;BME280;11751;42.700;24.170;2024-01-30T12:47:30;95655.22;;;3.76;60.81
23166;BME280;11751;42.700;24.170;2024-01-30T12:49:56;95645.00;;;3.67;60.25